Decoded Metar for KMJX ( in _UNIDENTIFIED) (IATA:N/A) | Meteo·Mobile Aviation Weather
aviador You're here:

KMJX Decoded Metar

in _UNIDENTIFIED
Report Time2018-11-19 09:41:00
UTC Time2018-11-19 09:47:21
Flight Rules mvfr MVFR
WindCalm
Visibility9999 m
Phenomena:N/A
Clouds:Scattered 001 Hf
Broken 017 Hf
Expected CloudBase > 400 ft AGL from Temp-Dew spread
Ceiling1,700 ft
Temp-2°C (ISA -17)
Dew Point-3°C (93% RH)
AAT-4.4°C
QNH1021 hPa
Density Alt-2,192 ft
Elevation82 ft
Report Wrong Elevation
Raw Report
KMJX 190941Z AUTO 00000KT 10SM SCT001 BKN017 M02/M03 A3014 RMK AO2
FZRANO=

Extra information for KMJX:More info

Metar Taf Metar & Taf Last 4 Metars F.Rules Stats Wind Profile Meteogram Temp Stats Metar ALERT Operation Metar Decoded Social comments